sensor_id;sensor_type;location;lat;lon;timestamp;temperature;humidity
74901;DHT22;63461;51.416;6.758;2024-01-16T00:00:03;2.50;99.90
74901;DHT22;63461;51.416;6.758;2024-01-16T00:02:30;2.40;99.90
74901;DHT22;63461;51.416;6.758;2024-01-16T00:04:56;2.40;99.90
74901;DHT22;63461;51.416;6.758;2024-01-16T00:07:22;2.40;99.90
74901;DHT22;63461;51.416;6.758;2024-01-16T00:09:47;2.30;99.90
74901;DHT22;63461;51.416;6.758;2024-01-16T00:12:13;2.40;99.90
74901;DHT22;63461;51.416;6.758;2024-01-16T00:14:39;2.40;99.90
74901;DHT22;63461;51.416;6.758;2024-01-16T00:17:05;2.40;99.90
74901;DHT22;63461;51.416;6.758;2024-01-16T00:19:31;2.40;99.90
74901;DHT22;63461;51.416;6.758;2024-01-16T00:21:57;2.40;99.90
74901;DHT22;63461;51.416;6.758;2024-01-16T00:24:23;2.50;99.90
74901;DHT22;63461;51.416;6.758;2024-01-16T00:26:48;2.50;99.90
74901;DHT22;63461;51.416;6.758;2024-01-16T00:29:15;2.50;99.90
74901;DHT22;63461;51.416;6.758;2024-01-16T00:31:41;2.50;99.90
74901;DHT22;63461;51.416;6.758;2024-01-16T00:34:07;2.40;99.90
74901;DHT22;63461;51.416;6.758;2024-01-16T00:36:33;2.40;99.90
74901;DHT22;63461;51.416;6.758;2024-01-16T00:38:58;2.40;99.90
74901;DHT22;63461;51.416;6.758;2024-01-16T00:41:24;2.40;99.90
74901;DHT22;63461;51.416;6.758;2024-01-16T00:43:50;2.40;99.90
74901;DHT22;63461;51.416;6.758;2024-01-16T00:46:16;2.40;99.90
74901;DHT22;63461;51.416;6.758;2024-01-16T00:48:42;2.50;99.90
74901;DHT22;63461;51.416;6.758;2024-01-16T00:51:07;2.30;99.90
74901;DHT22;63461;51.416;6.758;2024-01-16T00:53:33;2.40;99.90
74901;DHT22;63461;51.416;6.758;2024-01-16T00:55:59;2.40;99.90
74901;DHT22;63461;51.416;6.758;2024-01-16T00:58:25;2.30;99.90
74901;DHT22;63461;51.416;6.758;2024-01-16T01:00:52;2.40;99.90
74901;DHT22;63461;51.416;6.758;2024-01-16T01:03:17;2.30;99.90
74901;DHT22;63461;51.416;6.758;2024-01-16T01:05:43;2.30;99.90
74901;DHT22;63461;51.416;6.758;2024-01-16T01:08:09;2.30;99.90
74901;DHT22;63461;51.416;6.758;2024-01-16T01:10:35;2.30;99.90
74901;DHT22;63461;51.416;6.758;2024-01-16T01:13:00;2.20;99.90
74901;DHT22;63461;51.416;6.758;2024-01-16T01:15:26;2.30;99.90
74901;DHT22;63461;51.416;6.758;2024-01-16T01:17:52;2.30;99.90
74901;DHT22;63461;51.416;6.758;2024-01-16T01:20:19;2.30;99.90
74901;DHT22;63461;51.416;6.758;2024-01-16T01:22:46;2.20;99.90
74901;DHT22;63461;51.416;6.758;2024-01-16T01:25:12;2.20;99.90
74901;DHT22;63461;51.416;6.758;2024-01-16T01:27:38;2.20;99.90
74901;DHT22;63461;51.416;6.758;2024-01-16T01:30:06;2.30;99.90
74901;DHT22;63461;51.416;6.758;2024-01-16T01:32:32;2.40;99.90
74901;DHT22;63461;51.416;6.758;2024-01-16T01:34:59;2.40;99.90
74901;DHT22;63461;51.416;6.758;2024-01-16T01:37:25;2.40;99.90
74901;DHT22;63461;51.416;6.758;2024-01-16T01:39:50;2.40;99.90
74901;DHT22;63461;51.416;6.758;2024-01-16T01:42:17;2.40;99.90
74901;DHT22;63461;51.416;6.758;2024-01-16T01:44:42;2.40;99.90
74901;DHT22;63461;51.416;6.758;2024-01-16T01:47:08;2.40;99.90
74901;DHT22;63461;51.416;6.758;2024-01-16T01:49:35;2.20;99.90
74901;DHT22;63461;51.416;6.758;2024-01-16T01:52:02;2.30;99.90
74901;DHT22;63461;51.416;6.758;2024-01-16T01:54:29;2.40;99.90
74901;DHT22;63461;51.416;6.758;2024-01-16T01:56:56;2.30;99.90
74901;DHT22;63461;51.416;6.758;2024-01-16T01:59:23;2.40;99.90
74901;DHT22;63461;51.416;6.758;2024-01-16T02:01:50;2.50;99.90
74901;DHT22;63461;51.416;6.758;2024-01-16T02:04:19;2.40;99.90
74901;DHT22;63461;51.416;6.758;2024-01-16T02:06:45;2.40;99.90
74901;DHT22;63461;51.416;6.758;2024-01-16T02:09:12;2.40;99.90
74901;DHT22;63461;51.416;6.758;2024-01-16T02:11:40;2.40;99.90
74901;DHT22;63461;51.416;6.758;2024-01-16T02:14:07;2.40;99.90
74901;DHT22;63461;51.416;6.758;2024-01-16T02:16:38;2.40;99.90
74901;DHT22;63461;51.416;6.758;2024-01-16T02:19:04;2.50;99.90
74901;DHT22;63461;51.416;6.758;2024-01-16T02:21:47;2.40;99.90
74901;DHT22;63461;51.416;6.758;2024-01-16T02:24:15;2.50;99.90
74901;DHT22;63461;51.416;6.758;2024-01-16T02:26:41;2.50;99.90
74901;DHT22;63461;51.416;6.758;2024-01-16T02:29:07;2.50;99.90
74901;DHT22;63461;51.416;6.758;2024-01-16T02:31:33;2.40;99.90
74901;DHT22;63461;51.416;6.758;2024-01-16T02:33:59;2.50;99.90
74901;DHT22;63461;51.416;6.758;2024-01-16T02:36:26;2.50;99.90
74901;DHT22;63461;51.416;6.758;2024-01-16T02:38:52;2.40;99.90
74901;DHT22;63461;51.416;6.758;2024-01-16T02:41:18;2.40;99.90
74901;DHT22;63461;51.416;6.758;2024-01-16T02:43:44;2.40;99.90
74901;DHT22;63461;51.416;6.758;2024-01-16T02:46:10;2.40;99.90
74901;DHT22;63461;51.416;6.758;2024-01-16T02:48:36;2.40;99.90
74901;DHT22;63461;51.416;6.758;2024-01-16T02:51:02;2.40;99.90
74901;DHT22;63461;51.416;6.758;2024-01-16T02:53:29;2.40;99.90
74901;DHT22;63461;51.416;6.758;2024-01-16T02:55:55;2.50;99.90
74901;DHT22;63461;51.416;6.758;2024-01-16T02:58:27;2.40;99.90
74901;DHT22;63461;51.416;6.758;2024-01-16T03:00:53;2.30;99.90
74901;DHT22;63461;51.416;6.758;2024-01-16T03:03:19;2.40;99.90
74901;DHT22;63461;51.416;6.758;2024-01-16T03:05:44;2.40;99.90
74901;DHT22;63461;51.416;6.758;2024-01-16T03:08:10;2.40;99.90
74901;DHT22;63461;51.416;6.758;2024-01-16T03:10:36;2.40;99.90
74901;DHT22;63461;51.416;6.758;2024-01-16T03:13:02;2.50;99.90
74901;DHT22;63461;51.416;6.758;2024-01-16T03:15:28;2.40;99.90
74901;DHT22;63461;51.416;6.758;2024-01-16T03:17:57;2.50;99.90
74901;DHT22;63461;51.416;6.758;2024-01-16T03:20:23;2.30;99.90
74901;DHT22;63461;51.416;6.758;2024-01-16T03:22:49;2.40;99.90
74901;DHT22;63461;51.416;6.758;2024-01-16T03:25:16;2.30;99.90
74901;DHT22;63461;51.416;6.758;2024-01-16T03:27:42;2.40;99.90
74901;DHT22;63461;51.416;6.758;2024-01-16T03:30:08;2.40;99.90
74901;DHT22;63461;51.416;6.758;2024-01-16T03:32:37;2.30;99.90
74901;DHT22;63461;51.416;6.758;2024-01-16T03:35:07;2.40;99.90
74901;DHT22;63461;51.416;6.758;2024-01-16T03:37:33;2.30;99.90
74901;DHT22;63461;51.416;6.758;2024-01-16T03:40:00;2.40;99.90
74901;DHT22;63461;51.416;6.758;2024-01-16T03:42:26;2.30;99.90
74901;DHT22;63461;51.416;6.758;2024-01-16T03:44:52;2.40;99.90
74901;DHT22;63461;51.416;6.758;2024-01-16T03:47:18;2.40;99.90
74901;DHT22;63461;51.416;6.758;2024-01-16T03:49:44;2.40;99.90
74901;DHT22;63461;51.416;6.758;2024-01-16T03:52:09;2.40;99.90
74901;DHT22;63461;51.416;6.758;2024-01-16T03:54:35;2.40;99.90
74901;DHT22;63461;51.416;6.758;2024-01-16T03:57:01;2.40;99.90
74901;DHT22;63461;51.416;6.758;2024-01-16T03:59:27;2.40;99.90
74901;DHT22;63461;51.416;6.758;2024-01-16T04:01:52;2.40;99.90
74901;DHT22;63461;51.416;6.758;2024-01-16T04:04:18;2.40;99.90
74901;DHT22;63461;51.416;6.758;2024-01-16T04:06:46;2.40;99.90
74901;DHT22;63461;51.416;6.758;2024-01-16T04:09:11;2.40;99.90
74901;DHT22;63461;51.416;6.758;2024-01-16T04:11:37;2.50;99.90
74901;DHT22;63461;51.416;6.758;2024-01-16T04:14:04;2.50;99.90
74901;DHT22;63461;51.416;6.758;2024-01-16T04:16:29;2.40;99.90
74901;DHT22;63461;51.416;6.758;2024-01-16T04:18:55;2.40;99.90
74901;DHT22;63461;51.416;6.758;2024-01-16T04:21:21;2.50;99.90
74901;DHT22;63461;51.416;6.758;2024-01-16T04:23:47;2.40;99.90
74901;DHT22;63461;51.416;6.758;2024-01-16T04:26:13;2.50;99.90
74901;DHT22;63461;51.416;6.758;2024-01-16T04:28:38;2.50;99.90
74901;DHT22;63461;51.416;6.758;2024-01-16T04:31:05;2.40;99.90
74901;DHT22;63461;51.416;6.758;2024-01-16T04:33:31;2.30;99.90
74901;DHT22;63461;51.416;6.758;2024-01-16T04:35:56;2.40;99.90
74901;DHT22;63461;51.416;6.758;2024-01-16T04:38:22;2.40;99.90
74901;DHT22;63461;51.416;6.758;2024-01-16T04:40:49;2.20;99.90
74901;DHT22;63461;51.416;6.758;2024-01-16T04:43:15;2.40;99.90
74901;DHT22;63461;51.416;6.758;2024-01-16T04:45:41;2.30;99.90
74901;DHT22;63461;51.416;6.758;2024-01-16T04:48:07;2.40;99.90
74901;DHT22;63461;51.416;6.758;2024-01-16T04:50:36;2.50;99.90
74901;DHT22;63461;51.416;6.758;2024-01-16T04:53:02;2.50;99.90
74901;DHT22;63461;51.416;6.758;2024-01-16T04:55:28;2.30;99.90
74901;DHT22;63461;51.416;6.758;2024-01-16T04:57:55;2.40;99.90
74901;DHT22;63461;51.416;6.758;2024-01-16T05:00:22;2.40;99.90
74901;DHT22;63461;51.416;6.758;2024-01-16T05:02:48;2.50;99.90
74901;DHT22;63461;51.416;6.758;2024-01-16T05:05:14;2.50;99.90
74901;DHT22;63461;51.416;6.758;2024-01-16T05:07:51;2.30;99.90
74901;DHT22;63461;51.416;6.758;2024-01-16T05:10:16;2.30;99.90
74901;DHT22;63461;51.416;6.758;2024-01-16T05:12:43;2.30;99.90
74901;DHT22;63461;51.416;6.758;2024-01-16T05:15:10;2.30;99.90
74901;DHT22;63461;51.416;6.758;2024-01-16T05:17:38;2.30;99.90
74901;DHT22;63461;51.416;6.758;2024-01-16T05:20:05;2.30;99.90
74901;DHT22;63461;51.416;6.758;2024-01-16T05:22:31;2.30;99.90
74901;DHT22;63461;51.416;6.758;2024-01-16T05:24:57;2.20;99.90
74901;DHT22;63461;51.416;6.758;2024-01-16T05:27:23;2.30;99.90
74901;DHT22;63461;51.416;6.758;2024-01-16T05:29:49;2.20;99.90
74901;DHT22;63461;51.416;6.758;2024-01-16T05:32:14;2.20;99.90
74901;DHT22;63461;51.416;6.758;2024-01-16T05:34:40;2.20;99.90
74901;DHT22;63461;51.416;6.758;2024-01-16T05:37:06;2.20;99.90
74901;DHT22;63461;51.416;6.758;2024-01-16T05:39:38;2.10;99.90
74901;DHT22;63461;51.416;6.758;2024-01-16T05:42:09;2.10;99.90
74901;DHT22;63461;51.416;6.758;2024-01-16T05:44:35;2.10;99.90
74901;DHT22;63461;51.416;6.758;2024-01-16T05:47:01;2.10;99.90
74901;DHT22;63461;51.416;6.758;2024-01-16T05:49:29;2.00;99.90
74901;DHT22;63461;51.416;6.758;2024-01-16T05:51:54;2.00;99.90
74901;DHT22;63461;51.416;6.758;2024-01-16T05:54:20;1.90;99.90
74901;DHT22;63461;51.416;6.758;2024-01-16T05:56:49;2.00;99.90
74901;DHT22;63461;51.416;6.758;2024-01-16T05:59:16;1.90;99.90
74901;DHT22;63461;51.416;6.758;2024-01-16T06:01:41;1.90;99.90
74901;DHT22;63461;51.416;6.758;2024-01-16T06:04:07;1.90;99.90
74901;DHT22;63461;51.416;6.758;2024-01-16T06:06:36;1.90;99.90
74901;DHT22;63461;51.416;6.758;2024-01-16T06:09:02;1.80;99.90
74901;DHT22;63461;51.416;6.758;2024-01-16T06:11:34;1.90;99.90
74901;DHT22;63461;51.416;6.758;2024-01-16T06:14:03;1.90;99.90
74901;DHT22;63461;51.416;6.758;2024-01-16T06:16:29;1.90;99.90
74901;DHT22;63461;51.416;6.758;2024-01-16T06:18:55;1.90;99.90
74901;DHT22;63461;51.416;6.758;2024-01-16T06:21:21;1.90;99.90
74901;DHT22;63461;51.416;6.758;2024-01-16T06:23:46;1.80;99.90
74901;DHT22;63461;51.416;6.758;2024-01-16T06:26:12;1.90;99.90
74901;DHT22;63461;51.416;6.758;2024-01-16T06:28:38;2.00;99.90
74901;DHT22;63461;51.416;6.758;2024-01-16T06:31:05;1.90;99.90
74901;DHT22;63461;51.416;6.758;2024-01-16T06:33:31;1.90;99.90
74901;DHT22;63461;51.416;6.758;2024-01-16T06:35:57;1.90;99.90
74901;DHT22;63461;51.416;6.758;2024-01-16T06:38:23;1.80;99.90
74901;DHT22;63461;51.416;6.758;2024-01-16T06:40:48;1.70;99.90
74901;DHT22;63461;51.416;6.758;2024-01-16T06:43:15;1.70;99.90
74901;DHT22;63461;51.416;6.758;2024-01-16T06:45:44;1.70;99.90
74901;DHT22;63461;51.416;6.758;2024-01-16T06:48:10;1.70;99.90
74901;DHT22;63461;51.416;6.758;2024-01-16T06:50:36;1.70;99.90
74901;DHT22;63461;51.416;6.758;2024-01-16T06:53:02;1.80;99.90
74901;DHT22;63461;51.416;6.758;2024-01-16T06:55:28;1.70;99.90
74901;DHT22;63461;51.416;6.758;2024-01-16T06:57:54;1.70;99.90
74901;DHT22;63461;51.416;6.758;2024-01-16T07:00:20;1.80;99.90
74901;DHT22;63461;51.416;6.758;2024-01-16T07:02:46;1.80;99.90
74901;DHT22;63461;51.416;6.758;2024-01-16T07:05:12;1.80;99.90
74901;DHT22;63461;51.416;6.758;2024-01-16T07:07:38;1.80;99.90
74901;DHT22;63461;51.416;6.758;2024-01-16T07:10:04;1.80;99.90
74901;DHT22;63461;51.416;6.758;2024-01-16T07:12:34;1.90;99.90
74901;DHT22;63461;51.416;6.758;2024-01-16T07:15:00;1.80;99.90
74901;DHT22;63461;51.416;6.758;2024-01-16T07:17:25;1.70;99.90
74901;DHT22;63461;51.416;6.758;2024-01-16T07:19:51;1.70;99.90
74901;DHT22;63461;51.416;6.758;2024-01-16T07:22:17;1.70;99.90
74901;DHT22;63461;51.416;6.758;2024-01-16T07:24:43;1.70;99.90
74901;DHT22;63461;51.416;6.758;2024-01-16T07:27:08;1.70;99.90
74901;DHT22;63461;51.416;6.758;2024-01-16T07:29:34;1.80;99.90
74901;DHT22;63461;51.416;6.758;2024-01-16T07:32:00;1.70;99.90
74901;DHT22;63461;51.416;6.758;2024-01-16T07:34:26;1.80;99.90
74901;DHT22;63461;51.416;6.758;2024-01-16T07:36:51;1.70;99.90
74901;DHT22;63461;51.416;6.758;2024-01-16T07:39:17;1.70;99.90
74901;DHT22;63461;51.416;6.758;2024-01-16T07:41:43;1.70;99.90
74901;DHT22;63461;51.416;6.758;2024-01-16T07:44:08;1.70;99.90
74901;DHT22;63461;51.416;6.758;2024-01-16T07:46:34;1.70;99.90
74901;DHT22;63461;51.416;6.758;2024-01-16T07:49:00;1.70;99.90
74901;DHT22;63461;51.416;6.758;2024-01-16T07:51:26;1.80;99.90
74901;DHT22;63461;51.416;6.758;2024-01-16T07:54:06;1.90;99.90
74901;DHT22;63461;51.416;6.758;2024-01-16T07:56:32;1.90;99.90
74901;DHT22;63461;51.416;6.758;2024-01-16T07:58:59;1.70;99.90
74901;DHT22;63461;51.416;6.758;2024-01-16T08:01:25;1.70;99.90
74901;DHT22;63461;51.416;6.758;2024-01-16T08:03:50;1.80;99.90
74901;DHT22;63461;51.416;6.758;2024-01-16T08:06:16;1.80;99.90
74901;DHT22;63461;51.416;6.758;2024-01-16T08:08:42;1.70;99.90
74901;DHT22;63461;51.416;6.758;2024-01-16T08:11:08;1.80;99.90
74901;DHT22;63461;51.416;6.758;2024-01-16T08:13:34;1.80;99.90
74901;DHT22;63461;51.416;6.758;2024-01-16T08:15:59;1.80;99.90
74901;DHT22;63461;51.416;6.758;2024-01-16T08:18:25;1.90;99.90
74901;DHT22;63461;51.416;6.758;2024-01-16T08:20:52;1.80;99.90
74901;DHT22;63461;51.416;6.758;2024-01-16T08:23:17;1.80;99.90
74901;DHT22;63461;51.416;6.758;2024-01-16T08:25:43;1.70;99.90
74901;DHT22;63461;51.416;6.758;2024-01-16T08:28:10;1.90;99.90
74901;DHT22;63461;51.416;6.758;2024-01-16T08:30:35;1.90;99.90
74901;DHT22;63461;51.416;6.758;2024-01-16T08:33:02;2.00;99.90
74901;DHT22;63461;51.416;6.758;2024-01-16T08:35:28;1.90;99.90
74901;DHT22;63461;51.416;6.758;2024-01-16T08:37:56;1.90;99.90
74901;DHT22;63461;51.416;6.758;2024-01-16T08:40:22;1.80;99.90
74901;DHT22;63461;51.416;6.758;2024-01-16T08:42:47;1.90;99.90
74901;DHT22;63461;51.416;6.758;2024-01-16T08:45:17;1.90;99.90
74901;DHT22;63461;51.416;6.758;2024-01-16T08:47:43;1.90;99.90
74901;DHT22;63461;51.416;6.758;2024-01-16T08:50:09;1.90;99.90
74901;DHT22;63461;51.416;6.758;2024-01-16T08:52:35;2.00;99.90
74901;DHT22;63461;51.416;6.758;2024-01-16T08:55:01;2.00;99.90
74901;DHT22;63461;51.416;6.758;2024-01-16T08:57:27;1.90;99.90
74901;DHT22;63461;51.416;6.758;2024-01-16T08:59:53;1.90;99.90
74901;DHT22;63461;51.416;6.758;2024-01-16T09:02:19;1.90;99.90
74901;DHT22;63461;51.416;6.758;2024-01-16T09:04:45;1.80;99.90
74901;DHT22;63461;51.416;6.758;2024-01-16T09:07:11;1.80;99.90
74901;DHT22;63461;51.416;6.758;2024-01-16T09:09:41;1.90;99.90
74901;DHT22;63461;51.416;6.758;2024-01-16T09:12:09;1.90;99.90
74901;DHT22;63461;51.416;6.758;2024-01-16T09:14:34;1.90;99.90
74901;DHT22;63461;51.416;6.758;2024-01-16T09:17:00;1.90;99.90
74901;DHT22;63461;51.416;6.758;2024-01-16T09:19:26;2.00;99.90
74901;DHT22;63461;51.416;6.758;2024-01-16T09:21:52;2.00;99.90
74901;DHT22;63461;51.416;6.758;2024-01-16T09:24:17;2.00;99.90
74901;DHT22;63461;51.416;6.758;2024-01-16T09:26:44;1.90;99.90
74901;DHT22;63461;51.416;6.758;2024-01-16T09:29:10;2.10;99.90
74901;DHT22;63461;51.416;6.758;2024-01-16T09:31:36;2.10;99.90
74901;DHT22;63461;51.416;6.758;2024-01-16T09:34:03;2.10;99.90
74901;DHT22;63461;51.416;6.758;2024-01-16T09:36:29;2.00;99.90
74901;DHT22;63461;51.416;6.758;2024-01-16T09:38:55;2.10;99.90
74901;DHT22;63461;51.416;6.758;2024-01-16T09:41:20;2.20;99.90
74901;DHT22;63461;51.416;6.758;2024-01-16T09:43:47;2.10;99.90
74901;DHT22;63461;51.416;6.758;2024-01-16T09:46:15;2.10;99.90
74901;DHT22;63461;51.416;6.758;2024-01-16T09:48:42;2.10;99.90
74901;DHT22;63461;51.416;6.758;2024-01-16T09:51:12;2.30;99.90
74901;DHT22;63461;51.416;6.758;2024-01-16T09:53:42;2.20;99.90
74901;DHT22;63461;51.416;6.758;2024-01-16T09:56:15;2.10;99.90
74901;DHT22;63461;51.416;6.758;2024-01-16T09:58:43;2.20;99.90
74901;DHT22;63461;51.416;6.758;2024-01-16T10:01:10;2.10;99.90
74901;DHT22;63461;51.416;6.758;2024-01-16T10:03:37;2.20;99.90
74901;DHT22;63461;51.416;6.758;2024-01-16T10:06:05;2.10;99.90
74901;DHT22;63461;51.416;6.758;2024-01-16T10:08:32;2.20;99.90
74901;DHT22;63461;51.416;6.758;2024-01-16T10:11:01;2.20;99.90
74901;DHT22;63461;51.416;6.758;2024-01-16T10:13:27;2.20;99.90
74901;DHT22;63461;51.416;6.758;2024-01-16T10:15:53;2.30;99.90
74901;DHT22;63461;51.416;6.758;2024-01-16T10:18:25;2.30;99.90
74901;DHT22;63461;51.416;6.758;2024-01-16T10:20:51;2.40;99.90
74901;DHT22;63461;51.416;6.758;2024-01-16T10:23:26;2.40;99.90
74901;DHT22;63461;51.416;6.758;2024-01-16T10:26:11;2.40;99.90
74901;DHT22;63461;51.416;6.758;2024-01-16T10:28:41;2.40;99.90
74901;DHT22;63461;51.416;6.758;2024-01-16T10:31:08;2.50;99.90
74901;DHT22;63461;51.416;6.758;2024-01-16T10:33:34;2.50;99.90
74901;DHT22;63461;51.416;6.758;2024-01-16T10:36:19;2.50;99.90
74901;DHT22;63461;51.416;6.758;2024-01-16T10:38:46;2.50;99.90
74901;DHT22;63461;51.416;6.758;2024-01-16T10:41:16;2.40;99.90
74901;DHT22;63461;51.416;6.758;2024-01-16T10:43:43;2.50;99.90
74901;DHT22;63461;51.416;6.758;2024-01-16T10:46:14;2.50;99.90
74901;DHT22;63461;51.416;6.758;2024-01-16T10:48:45;2.60;99.90
74901;DHT22;63461;51.416;6.758;2024-01-16T10:51:14;2.60;99.90
74901;DHT22;63461;51.416;6.758;2024-01-16T10:53:44;2.60;99.90
74901;DHT22;63461;51.416;6.758;2024-01-16T10:56:12;2.60;99.90
74901;DHT22;63461;51.416;6.758;2024-01-16T10:58:41;2.60;99.90
74901;DHT22;63461;51.416;6.758;2024-01-16T11:01:14;2.70;99.90
74901;DHT22;63461;51.416;6.758;2024-01-16T11:03:47;2.70;99.90
74901;DHT22;63461;51.416;6.758;2024-01-16T11:06:17;2.60;99.90
74901;DHT22;63461;51.416;6.758;2024-01-16T11:08:47;2.60;99.90
74901;DHT22;63461;51.416;6.758;2024-01-16T11:11:14;2.50;99.90
74901;DHT22;63461;51.416;6.758;2024-01-16T11:13:41;2.50;99.90
74901;DHT22;63461;51.416;6.758;2024-01-16T11:16:10;2.50;99.90
74901;DHT22;63461;51.416;6.758;2024-01-16T11:18:37;2.50;99.90
74901;DHT22;63461;51.416;6.758;2024-01-16T11:21:06;2.50;99.90
74901;DHT22;63461;51.416;6.758;2024-01-16T11:23:32;2.40;99.90
74901;DHT22;63461;51.416;6.758;2024-01-16T11:26:19;2.50;99.90
74901;DHT22;63461;51.416;6.758;2024-01-16T11:28:46;2.50;99.90
74901;DHT22;63461;51.416;6.758;2024-01-16T11:31:28;2.70;99.90
74901;DHT22;63461;51.416;6.758;2024-01-16T11:33:54;2.80;99.90
74901;DHT22;63461;51.416;6.758;2024-01-16T11:36:47;2.80;99.90
74901;DHT22;63461;51.416;6.758;2024-01-16T11:39:18;2.70;99.90
74901;DHT22;63461;51.416;6.758;2024-01-16T11:44:48;2.60;99.90
74901;DHT22;63461;51.416;6.758;2024-01-16T11:47:21;2.50;99.90
74901;DHT22;63461;51.416;6.758;2024-01-16T11:49:52;2.60;99.90
74901;DHT22;63461;51.416;6.758;2024-01-16T11:52:45;2.60;99.90
74901;DHT22;63461;51.416;6.758;2024-01-16T11:55:35;2.50;99.90
74901;DHT22;63461;51.416;6.758;2024-01-16T12:00:55;2.60;99.90
74901;DHT22;63461;51.416;6.758;2024-01-16T12:03:23;2.60;99.90
74901;DHT22;63461;51.416;6.758;2024-01-16T12:05:55;2.60;99.90
74901;DHT22;63461;51.416;6.758;2024-01-16T12:08:21;2.60;99.90
74901;DHT22;63461;51.416;6.758;2024-01-16T12:10:48;2.60;99.90
74901;DHT22;63461;51.416;6.758;2024-01-16T12:13:14;2.70;99.90
74901;DHT22;63461;51.416;6.758;2024-01-16T12:15:40;2.70;99.90
74901;DHT22;63461;51.416;6.758;2024-01-16T12:18:07;2.70;99.90
74901;DHT22;63461;51.416;6.758;2024-01-16T12:20:35;2.80;99.90
74901;DHT22;63461;51.416;6.758;2024-01-16T12:23:07;2.70;99.90
74901;DHT22;63461;51.416;6.758;2024-01-16T12:25:35;2.90;99.90
74901;DHT22;63461;51.416;6.758;2024-01-16T12:28:03;2.80;99.90
74901;DHT22;63461;51.416;6.758;2024-01-16T12:30:32;2.70;99.90
74901;DHT22;63461;51.416;6.758;2024-01-16T12:33:21;2.80;99.90
74901;DHT22;63461;51.416;6.758;2024-01-16T12:35:47;2.90;99.90
74901;DHT22;63461;51.416;6.758;2024-01-16T12:38:13;2.70;99.90
74901;DHT22;63461;51.416;6.758;2024-01-16T12:43:12;2.70;99.90
74901;DHT22;63461;51.416;6.758;2024-01-16T12:45:38;2.70;99.90
74901;DHT22;63461;51.416;6.758;2024-01-16T12:48:04;2.70;99.90
74901;DHT22;63461;51.416;6.758;2024-01-16T12:50:32;2.70;99.90
74901;DHT22;63461;51.416;6.758;2024-01-16T12:53:16;2.70;99.90
74901;DHT22;63461;51.416;6.758;2024-01-16T12:55:44;2.70;99.90
74901;DHT22;63461;51.416;6.758;2024-01-16T12:58:21;2.70;99.90
74901;DHT22;63461;51.416;6.758;2024-01-16T13:00:52;2.80;99.90
74901;DHT22;63461;51.416;6.758;2024-01-16T13:03:21;2.80;99.90
74901;DHT22;63461;51.416;6.758;2024-01-16T13:05:58;2.80;99.90
74901;DHT22;63461;51.416;6.758;2024-01-16T13:08:25;2.80;99.90
74901;DHT22;63461;51.416;6.758;2024-01-16T13:11:05;2.90;99.90
74901;DHT22;63461;51.416;6.758;2024-01-16T13:13:32;2.80;99.90
74901;DHT22;63461;51.416;6.758;2024-01-16T13:15:58;2.60;99.90
74901;DHT22;63461;51.416;6.758;2024-01-16T13:18:26;2.60;99.90
74901;DHT22;63461;51.416;6.758;2024-01-16T13:20:54;2.70;99.90
74901;DHT22;63461;51.416;6.758;2024-01-16T13:23:21;2.70;99.90
74901;DHT22;63461;51.416;6.758;2024-01-16T13:25:48;2.70;99.90
74901;DHT22;63461;51.416;6.758;2024-01-16T13:28:15;2.70;99.90
74901;DHT22;63461;51.416;6.758;2024-01-16T13:30:42;2.70;99.90
74901;DHT22;63461;51.416;6.758;2024-01-16T13:33:08;2.70;99.90
74901;DHT22;63461;51.416;6.758;2024-01-16T13:35:35;2.70;99.90
74901;DHT22;63461;51.416;6.758;2024-01-16T13:38:02;2.70;99.90
74901;DHT22;63461;51.416;6.758;2024-01-16T13:40:30;2.70;99.90
74901;DHT22;63461;51.416;6.758;2024-01-16T13:42:56;2.90;99.90
74901;DHT22;63461;51.416;6.758;2024-01-16T13:45:22;2.90;99.90
74901;DHT22;63461;51.416;6.758;2024-01-16T13:47:48;2.90;99.90
74901;DHT22;63461;51.416;6.758;2024-01-16T13:50:14;2.90;99.90
74901;DHT22;63461;51.416;6.758;2024-01-16T13:52:40;2.90;99.90
74901;DHT22;63461;51.416;6.758;2024-01-16T13:55:07;2.90;99.90
74901;DHT22;63461;51.416;6.758;2024-01-16T13:57:33;2.80;99.90
74901;DHT22;63461;51.416;6.758;2024-01-16T14:00:02;2.70;99.90
74901;DHT22;63461;51.416;6.758;2024-01-16T14:02:37;2.80;99.90
74901;DHT22;63461;51.416;6.758;2024-01-16T14:05:04;2.80;99.90
74901;DHT22;63461;51.416;6.758;2024-01-16T14:07:31;2.90;99.90
74901;DHT22;63461;51.416;6.758;2024-01-16T14:09:57;2.80;99.90
74901;DHT22;63461;51.416;6.758;2024-01-16T14:12:23;2.80;99.90
74901;DHT22;63461;51.416;6.758;2024-01-16T14:14:50;2.80;99.90
74901;DHT22;63461;51.416;6.758;2024-01-16T14:17:16;2.70;99.90
74901;DHT22;63461;51.416;6.758;2024-01-16T14:19:42;2.70;99.90
74901;DHT22;63461;51.416;6.758;2024-01-16T14:22:08;2.70;99.90
74901;DHT22;63461;51.416;6.758;2024-01-16T14:24:34;2.70;99.90
74901;DHT22;63461;51.416;6.758;2024-01-16T14:27:00;2.60;99.90
74901;DHT22;63461;51.416;6.758;2024-01-16T14:29:26;2.60;99.90
74901;DHT22;63461;51.416;6.758;2024-01-16T14:31:52;2.60;99.90
74901;DHT22;63461;51.416;6.758;2024-01-16T14:34:19;2.70;99.90
74901;DHT22;63461;51.416;6.758;2024-01-16T14:36:45;2.60;99.90
74901;DHT22;63461;51.416;6.758;2024-01-16T14:39:11;2.60;99.90
74901;DHT22;63461;51.416;6.758;2024-01-16T14:41:42;2.60;99.90
74901;DHT22;63461;51.416;6.758;2024-01-16T14:44:09;2.50;99.90
74901;DHT22;63461;51.416;6.758;2024-01-16T14:46:40;2.60;99.90
74901;DHT22;63461;51.416;6.758;2024-01-16T14:49:06;2.60;99.90
74901;DHT22;63461;51.416;6.758;2024-01-16T14:51:31;2.40;99.90
74901;DHT22;63461;51.416;6.758;2024-01-16T14:53:57;2.50;99.90
74901;DHT22;63461;51.416;6.758;2024-01-16T14:56:27;2.50;99.90
74901;DHT22;63461;51.416;6.758;2024-01-16T14:58:53;2.50;99.90
74901;DHT22;63461;51.416;6.758;2024-01-16T15:01:18;2.30;99.90
74901;DHT22;63461;51.416;6.758;2024-01-16T15:03:44;2.40;99.90
74901;DHT22;63461;51.416;6.758;2024-01-16T15:06:10;2.50;99.90
74901;DHT22;63461;51.416;6.758;2024-01-16T15:08:38;2.40;99.90
74901;DHT22;63461;51.416;6.758;2024-01-16T15:11:04;2.40;99.90
74901;DHT22;63461;51.416;6.758;2024-01-16T15:13:31;2.40;99.90
74901;DHT22;63461;51.416;6.758;2024-01-16T15:15:57;2.30;99.90
74901;DHT22;63461;51.416;6.758;2024-01-16T15:18:23;2.30;99.90
74901;DHT22;63461;51.416;6.758;2024-01-16T15:20:48;2.30;99.90
74901;DHT22;63461;51.416;6.758;2024-01-16T15:23:14;2.20;99.90
74901;DHT22;63461;51.416;6.758;2024-01-16T15:25:40;2.20;99.90
74901;DHT22;63461;51.416;6.758;2024-01-16T15:28:06;2.20;99.90
74901;DHT22;63461;51.416;6.758;2024-01-16T15:30:31;2.20;99.90
74901;DHT22;63461;51.416;6.758;2024-01-16T15:32:58;2.10;99.90
74901;DHT22;63461;51.416;6.758;2024-01-16T15:35:24;2.20;99.90
74901;DHT22;63461;51.416;6.758;2024-01-16T15:37:50;2.10;99.90
74901;DHT22;63461;51.416;6.758;2024-01-16T15:40:16;2.10;99.90
74901;DHT22;63461;51.416;6.758;2024-01-16T15:42:42;2.10;99.90
74901;DHT22;63461;51.416;6.758;2024-01-16T15:45:08;2.00;99.90
74901;DHT22;63461;51.416;6.758;2024-01-16T15:47:37;2.10;99.90
74901;DHT22;63461;51.416;6.758;2024-01-16T15:50:07;2.00;99.90
74901;DHT22;63461;51.416;6.758;2024-01-16T15:52:34;1.90;99.90